| time (UTC) | temp C | wind direction | speed KPH | gust KPH | rain 1hr cm | rain 24hr cm | rain mn cm | humidity % | barometer mb |
| 20260901020041 | 24 | 192 | 3.2 | 8.0 | 0.00 | 0.00 | 0.00 | 76 | 1016.5 |
| 20260901015541 | 24 | 201 | 3.2 | 8.0 | 0.00 | 0.00 | 0.00 | 77 | 1016.4 |
| 20260901015041 | 24 | 201 | 3.2 | 8.0 | 0.00 | 0.00 | 0.00 | 77 | 1016.4 |
| 20260901014541 | 25 | 184 | 4.8 | 9.7 | 0.00 | 0.00 | 0.00 | 76 | 1016.3 |
| 20260901014041 | 25 | 172 | 3.2 | 9.7 | 0.00 | 0.00 | 0.00 | 73 | 1016.3 |
| 20260901013541 | 25 | 173 | 3.2 | 9.7 | 0.00 | 0.00 | 0.00 | 71 | 1016.4 |
| 20260901013040 | 25 | 157 | 3.2 | 9.7 | 0.00 | 0.00 | 0.00 | 67 | 1016.3 |
| 20260901012540 | 25 | 197 | 1.6 | 8.0 | 0.00 | 0.00 | 0.00 | 65 | 1016.2 |
| 20260901012040 | 25 | 216 | 1.6 | 4.8 | 0.00 | 0.00 | 0.00 | 65 | 1016.2 |
| 20260901011540 | 25 | 208 | 0.0 | 4.8 | 0.00 | 0.00 | 0.00 | 65 | 1016.1 |
| 20260901011040 | 26 | 193 | 0.0 | 4.8 | 0.00 | 0.00 | 0.00 | 65 | 1016.1 |
| 20260901010540 | 26 | 270 | 0.0 | 3.2 | 0.00 | 0.00 | 0.00 | 64 | 1016.1 |
| 20260901010040 | 26 | 237 | 1.6 | 4.8 | 0.00 | 0.00 | 0.00 | 64 | 1016.0 |
| 20260901005540 | 26 | 230 | 1.6 | 3.2 | 0.00 | 0.00 | 0.00 | 64 | 1016.1 |
| 20260901005040 | 26 | 115 | 0.0 | 4.8 | 0.00 | 0.00 | 0.00 | 63 | 1016.2 |
| 20260901004540 | 26 | 216 | 3.2 | 8.0 | 0.00 | 0.00 | 0.00 | 63 | 1016.2 |
| 20260901004040 | 26 | 222 | 4.8 | 8.0 | 0.00 | 0.00 | 0.00 | 63 | 1016.1 |
| 20260901003540 | 26 | 218 | 6.4 | 9.7 | 0.00 | 0.00 | 0.00 | 63 | 1016.1 |
| 20260901003040 | 26 | 221 | 6.4 | 8.0 | 0.00 | 0.00 | 0.00 | 64 | 1016.0 |
| 20260901002540 | 26 | 220 | 4.8 | 8.0 | 0.00 | 0.00 | 0.00 | 64 | 1015.9 |
| 20260901002041 | 26 | 224 | 4.8 | 9.7 | 0.00 | 0.00 | 0.00 | 64 | 1015.8 |
| 20260901001541 | 26 | 220 | 6.4 | 9.7 | 0.00 | 0.00 | 0.00 | 64 | 1015.8 |
| 20260901001041 | 26 | 221 | 6.4 | 11.3 | 0.00 | 0.00 | 0.00 | 64 | 1015.6 |
| 20260901000541 | 26 | 222 | 6.4 | 9.7 | 0.00 | 0.00 | 0.00 | 64 | 1015.8 |
| 20260901000041 | 26 | 220 | 8.0 | 11.3 | 0.00 | 0.00 | 0.00 | 63 | 1015.8 |
| 20260831235541 | 26 | 220 | 6.4 | 11.3 | 0.00 | 0.00 | 0.00 | 63 | 1015.8 |
| 20260831235041 | 26 | 216 | 6.4 | 11.3 | 0.00 | 0.00 | 0.00 | 63 | 1015.9 |
| 20260831234541 | 26 | 212 | 6.4 | 11.3 | 0.00 | 0.00 | 0.00 | 63 | 1015.9 |
| 20260831234041 | 26 | 221 | 6.4 | 9.7 | 0.00 | 0.00 | 0.00 | 63 | 1015.9 |
| 20260831233540 | 26 | 234 | 4.8 | 9.7 | 0.00 | 0.00 | 0.00 | 63 | 1016.0 |
| 20260831233040 | 26 | 222 | 8.0 | 12.9 | 0.00 | 0.00 | 0.00 | 62 | 1016.0 |
| 20260831232540 | 26 | 220 | 8.0 | 12.9 | 0.00 | 0.00 | 0.00 | 62 | 1016.0 |
| 20260831232040 | 26 | 236 | 6.4 | 9.7 | 0.00 | 0.00 | 0.00 | 62 | 1016.1 |
| 20260831231540 | 26 | 221 | 6.4 | 11.3 | 0.00 | 0.00 | 0.00 | 62 | 1016.1 |
| 20260831231040 | 26 | 236 | 6.4 | 12.9 | 0.00 | 0.00 | 0.00 | 62 | 1016.2 |
| 20260831230540 | 26 | 236 | 8.0 | 12.9 | 0.00 | 0.00 | 0.00 | 61 | 1016.3 |
| 20260831230040 | 26 | 227 | 8.0 | 12.9 | 0.00 | 0.00 | 0.00 | 61 | 1016.2 |
| 20260831225540 | 26 | 225 | 8.0 | 12.9 | 0.00 | 0.00 | 0.00 | 61 | 1016.1 |
| 20260831225041 | 26 | 225 | 6.4 | 12.9 | 0.00 | 0.00 | 0.00 | 61 | 1016.1 |
| 20260831224541 | 26 | 237 | 6.4 | 14.5 | 0.00 | 0.00 | 0.00 | 61 | 1016.3 |
| 20260831224042 | 26 | 217 | 8.0 | 14.5 | 0.00 | 0.00 | 0.00 | 61 | 1016.2 |
| 20260831223541 | 27 | 220 | 8.0 | 16.1 | 0.00 | 0.00 | 0.00 | 60 | 1016.2 |
| 20260831223041 | 27 | 220 | 8.0 | 14.5 | 0.00 | 0.00 | 0.00 | 59 | 1016.2 |
| 20260831222541 | 27 | 233 | 8.0 | 14.5 | 0.00 | 0.00 | 0.00 | 59 | 1016.3 |
| 20260831222041 | 27 | 231 | 6.4 | 12.9 | 0.00 | 0.00 | 0.00 | 59 | 1016.3 |
| 20260831221541 | 27 | 238 | 8.0 | 12.9 | 0.00 | 0.00 | 0.00 | 59 | 1016.4 |
| 20260831221041 | 27 | 243 | 6.4 | 12.9 | 0.00 | 0.00 | 0.00 | 59 | 1016.4 |
| 20260831220541 | 26 | 220 | 8.0 | 12.9 | 0.00 | 0.00 | 0.00 | 60 | 1016.5 |
| 20260831220042 | 26 | 239 | 6.4 | 14.5 | 0.00 | 0.00 | 0.00 | 60 | 1016.6 |
| 20260831215542 | 26 | 251 | 8.0 | 14.5 | 0.00 | 0.00 | 0.00 | 59 | 1016.6 |
| 20260831215041 | 26 | 246 | 8.0 | 14.5 | 0.00 | 0.00 | 0.00 | 58 | 1016.7 |
| 20260831214541 | 26 | 253 | 6.4 | 14.5 | 0.00 | 0.00 | 0.00 | 59 | 1016.6 |
| 20260831214042 | 26 | 263 | 3.2 | 6.4 | 0.00 | 0.00 | 0.00 | 59 | 1016.7 |
| 20260831213541 | 26 | 271 | 3.2 | 4.8 | 0.00 | 0.00 | 0.00 | 60 | 1016.5 |
| 20260831213041 | 26 | 260 | 3.2 | 6.4 | 0.00 | 0.00 | 0.00 | 60 | 1016.6 |
| 20260831212541 | 26 | 257 | 3.2 | 8.0 | 0.00 | 0.00 | 0.00 | 59 | 1016.5 |
| 20260831212041 | 26 | 250 | 4.8 | 11.3 | 0.00 | 0.00 | 0.00 | 59 | 1016.6 |
| 20260831211541 | 27 | 254 | 8.0 | 12.9 | 0.00 | 0.00 | 0.00 | 59 | 1016.7 |
| 20260831211041 | 27 | 274 | 3.2 | 8.0 | 0.00 | 0.00 | 0.00 | 59 | 1016.7 |
| 20260831210541 | 27 | 251 | 4.8 | 8.0 | 0.00 | 0.00 | 0.00 | 58 | 1016.6 |
| 20260831210040 | 27 | 249 | 6.4 | 8.0 | 0.00 | 0.00 | 0.00 | 59 | 1016.7 |
| 20260831205540 | 27 | 251 | 6.4 | 12.9 | 0.00 | 0.00 | 0.00 | 58 | 1016.6 |
| 20260831205040 | 27 | 227 | 8.0 | 12.9 | 0.00 | 0.00 | 0.00 | 58 | 1016.8 |
| 20260831204541 | 27 | 233 | 6.4 | 12.9 | 0.00 | 0.00 | 0.00 | 58 | 1016.9 |
| 20260831204040 | 27 | 249 | 8.0 | 12.9 | 0.00 | 0.00 | 0.00 | 58 | 1016.8 |
| 20260831203541 | 27 | 242 | 8.0 | 12.9 | 0.00 | 0.00 | 0.00 | 58 | 1016.9 |
| 20260831203041 | 27 | 242 | 8.0 | 12.9 | 0.00 | 0.00 | 0.00 | 58 | 1016.8 |
| 20260831202541 | 27 | 236 | 6.4 | 11.3 | 0.00 | 0.00 | 0.00 | 58 | 1016.8 |
| 20260831202041 | 26 | 240 | 6.4 | 12.9 | 0.00 | 0.00 | 0.00 | 59 | 1016.8 |
| 20260831201541 | 27 | 243 | 6.4 | 16.1 | 0.00 | 0.00 | 0.00 | 59 | 1016.8 |
| 20260831201041 | 27 | 248 | 8.0 | 16.1 | 0.00 | 0.00 | 0.00 | 56 | 1016.9 |
| 20260831200541 | 27 | 258 | 4.8 | 12.9 | 0.00 | 0.00 | 0.00 | 56 | 1016.9 |
| 20260831200042 | 27 | 244 | 6.4 | 12.9 | 0.00 | 0.00 | 0.00 | 57 | 1017.0 |
| 20260831195541 | 27 | 246 | 4.8 | 11.3 | 0.00 | 0.00 | 0.00 | 56 | 1016.9 |
| 20260831195041 | 27 | 244 | 6.4 | 9.7 | 0.00 | 0.00 | 0.00 | 55 | 1017.2 |
| 20260831194541 | 27 | 230 | 8.0 | 11.3 | 0.00 | 0.00 | 0.00 | 54 | 1017.2 |
| 20260831194041 | 27 | 239 | 8.0 | 12.9 | 0.00 | 0.00 | 0.00 | 55 | 1017.3 |
| 20260831193541 | 27 | 228 | 6.4 | 9.7 | 0.00 | 0.00 | 0.00 | 55 | 1017.2 |
| 20260831193041 | 27 | 225 | 6.4 | 12.9 | 0.00 | 0.00 | 0.00 | 56 | 1017.2 |
| 20260831192541 | 27 | 242 | 9.7 | 14.5 | 0.00 | 0.00 | 0.00 | 55 | 1017.5 |
| 20260831192041 | 27 | 229 | 8.0 | 12.9 | 0.00 | 0.00 | 0.00 | 55 | 1017.5 |
| 20260831191541 | 27 | 243 | 8.0 | 14.5 | 0.00 | 0.00 | 0.00 | 55 | 1017.3 |
| 20260831191041 | 27 | 244 | 8.0 | 14.5 | 0.00 | 0.00 | 0.00 | 54 | 1017.5 |
| 20260831190541 | 27 | 228 | 6.4 | 16.1 | 0.00 | 0.00 | 0.00 | 54 | 1017.7 |
| 20260831190042 | 27 | 232 | 8.0 | 17.7 | 0.00 | 0.00 | 0.00 | 54 | 1017.7 |
| 20260831185541 | 27 | 236 | 8.0 | 17.7 | 0.00 | 0.00 | 0.00 | 54 | 1017.7 |
| 20260831185041 | 27 | 241 | 6.4 | 11.3 | 0.00 | 0.00 | 0.00 | 56 | 1017.7 |
| 20260831184541 | 27 | 233 | 8.0 | 12.9 | 0.00 | 0.00 | 0.00 | 55 | 1017.7 |
| 20260831184041 | 27 | 244 | 8.0 | 11.3 | 0.00 | 0.00 | 0.00 | 54 | 1017.8 |
| 20260831183541 | 27 | 236 | 6.4 | 12.9 | 0.00 | 0.00 | 0.00 | 55 | 1017.7 |
| 20260831183041 | 27 | 221 | 4.8 | 12.9 | 0.00 | 0.00 | 0.00 | 55 | 1017.6 |
| 20260831182541 | 27 | 223 | 8.0 | 14.5 | 0.00 | 0.00 | 0.00 | 54 | 1017.6 |
| 20260831182041 | 27 | 238 | 6.4 | 12.9 | 0.00 | 0.00 | 0.00 | 55 | 1017.7 |
| 20260831181541 | 27 | 219 | 8.0 | 14.5 | 0.00 | 0.00 | 0.00 | 55 | 1017.7 |
| 20260831181041 | 27 | 235 | 8.0 | 14.5 | 0.00 | 0.00 | 0.00 | 55 | 1017.9 |
| 20260831180542 | 27 | 243 | 8.0 | 14.5 | 0.00 | 0.00 | 0.00 | 55 | 1017.9 |
| 20260831180041 | 26 | 243 | 8.0 | 14.5 | 0.00 | 0.00 | 0.00 | 56 | 1017.7 |
| 20260831175542 | 26 | 250 | 8.0 | 19.3 | 0.00 | 0.00 | 0.00 | 57 | 1017.8 |
| 20260831175040 | 27 | 249 | 9.7 | 20.9 | 0.00 | 0.00 | 0.00 | 55 | 1017.8 |
| 20260831174541 | 27 | 243 | 8.0 | 16.1 | 0.00 | 0.00 | 0.00 | 56 | 1017.9 |
| 20260831174041 | 27 | 239 | 9.7 | 17.7 | 0.00 | 0.00 | 0.00 | 55 | 1017.9 |
| 20260831173541 | 26 | 257 | 6.4 | 12.9 | 0.00 | 0.00 | 0.00 | 57 | 1018.0 |
| 20260831173041 | 26 | 144 | 3.2 | 8.0 | 0.00 | 0.00 | 0.00 | 54 | 1017.9 |
| 20260831172541 | 26 | 205 | 3.2 | 8.0 | 0.00 | 0.00 | 0.00 | 56 | 1017.8 |
| 20260831172041 | 26 | 232 | 4.8 | 8.0 | 0.00 | 0.00 | 0.00 | 57 | 1017.8 |
| 20260831171541 | 26 | 172 | 3.2 | 8.0 | 0.00 | 0.00 | 0.00 | 56 | 1017.8 |
| 20260831171041 | 26 | 224 | 3.2 | 6.4 | 0.00 | 0.00 | 0.00 | 56 | 1017.8 |
| 20260831170541 | 27 | 213 | 4.8 | 11.3 | 0.00 | 0.00 | 0.00 | 55 | 1018.0 |
| 20260831170041 | 27 | 220 | 6.4 | 12.9 | 0.00 | 0.00 | 0.00 | 54 | 1017.9 |
| 20260831165541 | 27 | 222 | 6.4 | 12.9 | 0.00 | 0.00 | 0.00 | 54 | 1017.9 |
| 20260831165041 | 27 | 212 | 6.4 | 11.3 | 0.00 | 0.00 | 0.00 | 54 | 1018.0 |
| 20260831164541 | 26 | 248 | 6.4 | 9.7 | 0.00 | 0.00 | 0.00 | 55 | 1018.1 |
| 20260831164041 | 26 | 228 | 3.2 | 8.0 | 0.00 | 0.00 | 0.00 | 55 | 1018.0 |
| 20260831163541 | 26 | 229 | 4.8 | 9.7 | 0.00 | 0.00 | 0.00 | 56 | 1018.1 |
| 20260831163041 | 26 | 209 | 6.4 | 9.7 | 0.00 | 0.00 | 0.00 | 57 | 1018.2 |
| 20260831162541 | 25 | 215 | 3.2 | 8.0 | 0.00 | 0.00 | 0.00 | 59 | 1018.1 |
| 20260831162042 | 25 | 215 | 4.8 | 8.0 | 0.00 | 0.00 | 0.00 | 59 | 1018.1 |
| 20260831161542 | 25 | 205 | 3.2 | 9.7 | 0.00 | 0.00 | 0.00 | 59 | 1018.1 |
| 20260831161042 | 25 | 236 | 4.8 | 8.0 | 0.00 | 0.00 | 0.00 | 61 | 1018.1 |
| 20260831160541 | 25 | 132 | 3.2 | 9.7 | 0.00 | 0.00 | 0.00 | 61 | 1018.1 |
| 20260831160041 | 25 | 206 | 3.2 | 9.7 | 0.00 | 0.00 | 0.00 | 62 | 1018.1 |
| 20260831155541 | 25 | 144 | 3.2 | 8.0 | 0.00 | 0.00 | 0.00 | 61 | 1018.1 |
| 20260831155041 | 24 | 242 | 1.6 | 6.4 | 0.00 | 0.00 | 0.00 | 63 | 1018.1 |
| 20260831154541 | 25 | 185 | 3.2 | 8.0 | 0.00 | 0.00 | 0.00 | 61 | 1018.1 |
| 20260831154041 | 24 | 185 | 3.2 | 8.0 | 0.00 | 0.00 | 0.00 | 62 | 1018.1 |
| 20260831153541 | 25 | 126 | 3.2 | 9.7 | 0.00 | 0.00 | 0.00 | 62 | 1018.1 |
| 20260831153041 | 25 | 172 | 4.8 | 11.3 | 0.00 | 0.00 | 0.00 | 60 | 1018.1 |
| 20260831152541 | 25 | 183 | 4.8 | 11.3 | 0.00 | 0.00 | 0.00 | 60 | 1018.1 |
| 20260831152041 | 25 | 210 | 4.8 | 9.7 | 0.00 | 0.00 | 0.00 | 61 | 1018.1 |
| 20260831151541 | 23 | 166 | 3.2 | 8.0 | 0.00 | 0.00 | 0.00 | 66 | 1018.0 |
| 20260831151041 | 23 | 123 | 4.8 | 9.7 | 0.00 | 0.00 | 0.00 | 66 | 1018.3 |
| 20260831150541 | 23 | 100 | 4.8 | 8.0 | 0.00 | 0.00 | 0.00 | 66 | 1018.4 |
| 20260831150041 | 23 | 213 | 1.6 | 8.0 | 0.00 | 0.00 | 0.00 | 67 | 1018.5 |
| 20260831145541 | 23 | 85 | 3.2 | 8.0 | 0.00 | 0.00 | 0.00 | 67 | 1018.7 |
| 20260831145041 | 23 | 147 | 3.2 | 8.0 | 0.00 | 0.00 | 0.00 | 68 | 1018.6 |
| 20260831144541 | 23 | 118 | 4.8 | 9.7 | 0.00 | 0.00 | 0.00 | 67 | 1018.5 |
| 20260831144041 | 23 | 113 | 3.2 | 6.4 | 0.00 | 0.00 | 0.00 | 66 | 1018.5 |
| 20260831143541 | 23 | 183 | 3.2 | 6.4 | 0.00 | 0.00 | 0.00 | 67 | 1018.3 |
| 20260831143041 | 23 | 142 | 3.2 | 6.4 | 0.00 | 0.00 | 0.00 | 68 | 1018.5 |
| 20260831142541 | 23 | 102 | 3.2 | 8.0 | 0.00 | 0.00 | 0.00 | 67 | 1018.4 |
| 20260831142041 | 23 | 93 | 4.8 | 9.7 | 0.00 | 0.00 | 0.00 | 68 | 1018.4 |
| 20260831141541 | 23 | 92 | 6.4 | 9.7 | 0.00 | 0.00 | 0.00 | 68 | 1018.3 |
| 20260831141040 | 23 | 94 | 4.8 | 12.9 | 0.00 | 0.00 | 0.00 | 68 | 1018.5 |
| 20260831140540 | 23 | 92 | 4.8 | 8.0 | 0.00 | 0.00 | 0.00 | 68 | 1018.5 |
| 20260831140041 | 23 | 92 | 4.8 | 12.9 | 0.00 | 0.00 | 0.00 | 67 | 1018.5 |
| 20260831135541 | 23 | 120 | 4.8 | 12.9 | 0.00 | 0.00 | 0.00 | 67 | 1018.4 |
| 20260831135041 | 23 | 96 | 8.0 | 12.9 | 0.00 | 0.00 | 0.00 | 66 | 1018.3 |
| 20260831134541 | 23 | 106 | 6.4 | 14.5 | 0.00 | 0.00 | 0.00 | 66 | 1018.3 |
| 20260831134041 | 23 | 106 | 8.0 | 16.1 | 0.00 | 0.00 | 0.00 | 67 | 1018.3 |
| 20260831133541 | 23 | 91 | 8.0 | 12.9 | 0.00 | 0.00 | 0.00 | 66 | 1018.4 |
| 20260831133041 | 23 | 74 | 4.8 | 9.7 | 0.00 | 0.00 | 0.00 | 66 | 1018.3 |
| 20260831132541 | 23 | 150 | 4.8 | 9.7 | 0.00 | 0.00 | 0.00 | 65 | 1018.4 |
| 20260831132041 | 24 | 140 | 4.8 | 9.7 | 0.00 | 0.00 | 0.00 | 64 | 1018.4 |
| 20260831131541 | 24 | 189 | 3.2 | 8.0 | 0.00 | 0.00 | 0.00 | 65 | 1018.3 |
| 20260831131041 | 23 | 139 | 3.2 | 9.7 | 0.00 | 0.00 | 0.00 | 66 | 1018.3 |
| 20260831130541 | 23 | 110 | 6.4 | 9.7 | 0.00 | 0.00 | 0.00 | 65 | 1018.3 |
| 20260831130041 | 23 | 79 | 3.2 | 8.0 | 0.00 | 0.00 | 0.00 | 66 | 1018.4 |
| 20260831125541 | 23 | 107 | 4.8 | 9.7 | 0.00 | 0.00 | 0.00 | 67 | 1018.4 |
| 20260831125041 | 23 | 101 | 6.4 | 12.9 | 0.00 | 0.00 | 0.00 | 67 | 1018.5 |
| 20260831124541 | 23 | 71 | 6.4 | 12.9 | 0.00 | 0.00 | 0.00 | 66 | 1018.4 |
| 20260831124041 | 23 | 33 | 3.2 | 12.9 | 0.00 | 0.00 | 0.00 | 66 | 1018.4 |
| 20260831123541 | 23 | 69 | 8.0 | 12.9 | 0.00 | 0.00 | 0.00 | 66 | 1018.4 |
| 20260831123041 | 23 | 78 | 1.6 | 6.4 | 0.00 | 0.00 | 0.00 | 66 | 1018.3 |
| 20260831122541 | 23 | 75 | 4.8 | 9.7 | 0.00 | 0.00 | 0.00 | 66 | 1018.3 |
| 20260831122041 | 23 | 101 | 6.4 | 9.7 | 0.00 | 0.00 | 0.00 | 66 | 1018.2 |
| 20260831121540 | 23 | 89 | 4.8 | 9.7 | 0.00 | 0.00 | 0.00 | 65 | 1018.1 |
| 20260831121041 | 23 | 82 | 6.4 | 8.0 | 0.00 | 0.00 | 0.00 | 65 | 1018.1 |
| 20260831120540 | 23 | 92 | 3.2 | 8.0 | 0.00 | 0.00 | 0.00 | 65 | 1018.1 |
| 20260831120040 | 23 | 87 | 4.8 | 9.7 | 0.00 | 0.00 | 0.00 | 65 | 1018.2 |
| 20260831115540 | 23 | 98 | 4.8 | 9.7 | 0.00 | 0.00 | 0.00 | 65 | 1018.2 |
| 20260831115040 | 23 | 71 | 4.8 | 9.7 | 0.00 | 0.00 | 0.00 | 65 | 1018.0 |
| 20260831114540 | 23 | 82 | 4.8 | 8.0 | 0.00 | 0.00 | 0.00 | 65 | 1018.0 |
| 20260831114040 | 23 | 87 | 4.8 | 11.3 | 0.00 | 0.00 | 0.00 | 65 | 1018.0 |
| 20260831113541 | 23 | 65 | 6.4 | 12.9 | 0.00 | 0.00 | 0.00 | 65 | 1017.9 |
| 20260831113040 | 23 | 73 | 4.8 | 9.7 | 0.00 | 0.00 | 0.00 | 68 | 1017.7 |
| 20260831112540 | 22 | 80 | 4.8 | 9.7 | 0.00 | 0.00 | 0.00 | 70 | 1017.7 |
| 20260831112041 | 22 | 82 | 6.4 | 12.9 | 0.00 | 0.00 | 0.00 | 70 | 1017.7 |
| 20260831111542 | 23 | 86 | 6.4 | 11.3 | 0.00 | 0.00 | 0.00 | 70 | 1017.7 |
| 20260831111041 | 23 | 58 | 6.4 | 12.9 | 0.00 | 0.00 | 0.00 | 69 | 1017.7 |
| 20260831110541 | 23 | 104 | 6.4 | 9.7 | 0.00 | 0.00 | 0.00 | 70 | 1017.8 |
| 20260831110041 | 23 | 94 | 6.4 | 11.3 | 0.00 | 0.00 | 0.00 | 70 | 1017.8 |
| 20260831105541 | 23 | 92 | 4.8 | 9.7 | 0.00 | 0.00 | 0.00 | 70 | 1017.7 |
| 20260831105041 | 23 | 52 | 1.6 | 11.3 | 0.00 | 0.00 | 0.00 | 70 | 1017.8 |
| 20260831104541 | 23 | 95 | 9.7 | 14.5 | 0.00 | 0.00 | 0.00 | 70 | 1017.7 |
| 20260831104041 | 23 | 84 | 4.8 | 9.7 | 0.00 | 0.00 | 0.00 | 70 | 1017.7 |
| 20260831103541 | 23 | 53 | 4.8 | 8.0 | 0.00 | 0.00 | 0.00 | 70 | 1017.6 |
| 20260831103041 | 23 | 113 | 3.2 | 6.4 | 0.00 | 0.00 | 0.00 | 71 | 1017.5 |
| 20260831102540 | 23 | 111 | 1.6 | 6.4 | 0.00 | 0.00 | 0.00 | 72 | 1017.5 |
| 20260831102040 | 23 | 79 | 3.2 | 9.7 | 0.00 | 0.00 | 0.00 | 72 | 1017.4 |
| 20260831101540 | 23 | 100 | 1.6 | 6.4 | 0.00 | 0.00 | 0.00 | 73 | 1017.3 |
| 20260831101040 | 23 | 283 | 0.0 | 6.4 | 0.00 | 0.00 | 0.00 | 73 | 1017.4 |
| 20260831100540 | 23 | 96 | 4.8 | 8.0 | 0.00 | 0.00 | 0.00 | 73 | 1017.2 |
| 20260831100041 | 23 | 94 | 1.6 | 8.0 | 0.00 | 0.00 | 0.00 | 73 | 1017.1 |
| 20260831095541 | 23 | 72 | 6.4 | 14.5 | 0.00 | 0.00 | 0.00 | 74 | 1017.0 |
| 20260831095041 | 23 | 73 | 4.8 | 9.7 | 0.00 | 0.00 | 0.00 | 74 | 1017.0 |
| 20260831094541 | 23 | 102 | 4.8 | 9.7 | 0.00 | 0.00 | 0.00 | 75 | 1017.0 |
| 20260831094041 | 23 | 82 | 4.8 | 11.3 | 0.00 | 0.00 | 0.00 | 76 | 1016.9 |
| 20260831093541 | 23 | 67 | 4.8 | 9.7 | 0.00 | 0.00 | 0.00 | 76 | 1016.8 |
| 20260831093042 | 23 | 83 | 6.4 | 17.7 | 0.00 | 0.00 | 0.00 | 76 | 1016.8 |
| 20260831092542 | 23 | 90 | 8.0 | 14.5 | 0.00 | 0.00 | 0.00 | 77 | 1016.9 |
| 20260831092042 | 23 | 95 | 8.0 | 14.5 | 0.00 | 0.00 | 0.00 | 78 | 1016.9 |
| 20260831091542 | 23 | 96 | 8.0 | 20.9 | 0.00 | 0.00 | 0.00 | 78 | 1016.9 |
| 20260831091042 | 23 | 90 | 8.0 | 20.9 | 0.00 | 0.00 | 0.00 | 79 | 1016.8 |
| 20260831090542 | 23 | 70 | 6.4 | 16.1 | 0.00 | 0.00 | 0.00 | 80 | 1016.7 |
| 20260831090041 | 23 | 88 | 4.8 | 14.5 | 0.00 | 0.00 | 0.00 | 79 | 1016.6 |
| 20260831085541 | 23 | 69 | 9.7 | 17.7 | 0.00 | 0.00 | 0.00 | 80 | 1016.5 |
| 20260831085041 | 23 | 87 | 8.0 | 14.5 | 0.00 | 0.00 | 0.00 | 82 | 1016.5 |
| 20260831084540 | 23 | 77 | 9.7 | 17.7 | 0.00 | 0.00 | 0.00 | 82 | 1016.5 |
| 20260831084040 | 23 | 87 | 8.0 | 11.3 | 0.00 | 0.00 | 0.00 | 83 | 1016.5 |
| 20260831083542 | 23 | 95 | 6.4 | 14.5 | 0.00 | 0.00 | 0.00 | 83 | 1016.6 |
| 20260831083041 | 23 | 84 | 4.8 | 8.0 | 0.00 | 0.00 | 0.00 | 82 | 1016.7 |
| 20260831082541 | 23 | 93 | 6.4 | 12.9 | 0.00 | 0.00 | 0.00 | 82 | 1016.8 |
| 20260831082041 | 23 | 92 | 6.4 | 11.3 | 0.00 | 0.00 | 0.00 | 81 | 1016.7 |
| 20260831081541 | 23 | 109 | 4.8 | 9.7 | 0.00 | 0.00 | 0.00 | 81 | 1016.7 |
| 20260831081041 | 23 | 107 | 3.2 | 8.0 | 0.00 | 0.00 | 0.00 | 80 | 1016.7 |
| 20260831080541 | 23 | 106 | 3.2 | 6.4 | 0.00 | 0.00 | 0.00 | 79 | 1016.9 |
| 20260831080040 | 23 | 55 | 1.6 | 4.8 | 0.00 | 0.00 | 0.00 | 79 | 1016.8 |
| 20260831075540 | 23 | 68 | 1.6 | 3.2 | 0.00 | 0.00 | 0.00 | 79 | 1016.8 |
| 20260831075040 | 23 | 238 | 1.6 | 3.2 | 0.00 | 0.00 | 0.00 | 79 | 1016.8 |
| 20260831074541 | 23 | 37 | 0.0 | 3.2 | 0.00 | 0.00 | 0.00 | 79 | 1016.8 |
| 20260831074041 | 23 | 55 | 3.2 | 4.8 | 0.00 | 0.00 | 0.00 | 79 | 1016.8 |
| 20260831073541 | 23 | 59 | 0.0 | 3.2 | 0.00 | 0.00 | 0.00 | 79 | 1016.9 |
| 20260831073041 | 23 | 290 | 1.6 | 3.2 | 0.00 | 0.00 | 0.00 | 79 | 1016.8 |
| 20260831072541 | 23 | 0.0 | 3.2 | 0.00 | 0.00 | 0.00 | 79 | 1016.7 | |
| 20260831072041 | 23 | 197 | 0.0 | 3.2 | 0.00 | 0.00 | 0.00 | 80 | 1016.7 |
| 20260831071541 | 23 | 203 | 0.0 | 3.2 | 0.00 | 0.00 | 0.00 | 80 | 1016.7 |
| 20260831071040 | 23 | 0.0 | 3.2 | 0.00 | 0.00 | 0.00 | 80 | 1016.8 | |
| 20260831070540 | 23 | 293 | 0.0 | 3.2 | 0.00 | 0.00 | 0.00 | 80 | 1016.8 |
| 20260831070042 | 23 | 274 | 0.0 | 3.2 | 0.00 | 0.00 | 0.00 | 80 | 1016.8 |
| 20260831065541 | 23 | 0.0 | 1.6 | 0.00 | 0.00 | 0.00 | 80 | 1016.9 | |
| 20260831065041 | 23 | 0.0 | 1.6 | 0.00 | 0.00 | 0.00 | 80 | 1016.8 | |
| 20260831064541 | 23 | 224 | 0.0 | 3.2 | 0.00 | 0.00 | 0.00 | 80 | 1016.8 |
| 20260831064041 | 23 | 52 | 1.6 | 3.2 | 0.00 | 0.00 | 0.00 | 80 | 1016.9 |
| 20260831063541 | 23 | 237 | 1.6 | 4.8 | 0.00 | 0.00 | 0.00 | 79 | 1016.9 |
| 20260831063041 | 23 | 247 | 1.6 | 6.4 | 0.00 | 0.00 | 0.00 | 79 | 1016.9 |
| 20260831062541 | 23 | 263 | 3.2 | 9.7 | 0.00 | 0.00 | 0.00 | 79 | 1016.9 |
| 20260831062041 | 23 | 250 | 4.8 | 9.7 | 0.00 | 0.00 | 0.00 | 78 | 1016.9 |
| 20260831061541 | 23 | 250 | 3.2 | 8.0 | 0.00 | 0.00 | 0.00 | 77 | 1017.0 |
| 20260831061041 | 23 | 232 | 3.2 | 9.7 | 0.00 | 0.00 | 0.00 | 76 | 1017.1 |
| 20260831060541 | 23 | 237 | 1.6 | 6.4 | 0.00 | 0.00 | 0.00 | 76 | 1017.0 |
| 20260831060041 | 24 | 216 | 1.6 | 4.8 | 0.00 | 0.00 | 0.00 | 76 | 1017.0 |
| 20260831055541 | 24 | 230 | 4.8 | 6.4 | 0.00 | 0.00 | 0.00 | 77 | 1017.0 |
| 20260831055041 | 24 | 231 | 1.6 | 6.4 | 0.00 | 0.00 | 0.00 | 78 | 1017.0 |
| 20260831054541 | 24 | 276 | 1.6 | 4.8 | 0.00 | 0.00 | 0.00 | 77 | 1016.9 |
| 20260831054041 | 24 | 112 | 0.0 | 3.2 | 0.00 | 0.00 | 0.00 | 76 | 1017.1 |
| 20260831053541 | 24 | 38 | 1.6 | 3.2 | 0.00 | 0.00 | 0.00 | 75 | 1017.2 |
| 20260831053041 | 24 | 49 | 1.6 | 4.8 | 0.00 | 0.00 | 0.00 | 75 | 1017.1 |
| 20260831052542 | 24 | 241 | 1.6 | 4.8 | 0.00 | 0.00 | 0.00 | 75 | 1017.0 |
| 20260831052042 | 24 | 226 | 1.6 | 4.8 | 0.00 | 0.00 | 0.00 | 74 | 1017.1 |
| 20260831051542 | 24 | 219 | 0.0 | 3.2 | 0.00 | 0.00 | 0.00 | 74 | 1016.9 |
| 20260831051041 | 24 | 246 | 0.0 | 3.2 | 0.00 | 0.00 | 0.00 | 73 | 1016.8 |
| 20260831050542 | 24 | 188 | 1.6 | 3.2 | 0.00 | 0.00 | 0.00 | 73 | 1016.9 |
| 20260831050041 | 24 | 350 | 1.6 | 4.8 | 0.00 | 0.00 | 0.00 | 72 | 1017.0 |
| 20260831045541 | 24 | 3 | 4.8 | 9.7 | 0.00 | 0.00 | 0.00 | 72 | 1017.1 |
| 20260831045041 | 24 | 6 | 3.2 | 9.7 | 0.00 | 0.00 | 0.00 | 72 | 1017.2 |
| 20260831044541 | 24 | 337 | 1.6 | 6.4 | 0.00 | 0.00 | 0.00 | 72 | 1017.2 |
| 20260831044041 | 24 | 12 | 3.2 | 6.4 | 0.00 | 0.00 | 0.00 | 72 | 1017.3 |
| 20260831043541 | 24 | 330 | 1.6 | 4.8 | 0.00 | 0.00 | 0.00 | 72 | 1017.3 |
| 20260831043041 | 24 | 305 | 4.8 | 9.7 | 0.00 | 0.00 | 0.00 | 72 | 1017.3 |
| 20260831042541 | 24 | 300 | 4.8 | 9.7 | 0.00 | 0.00 | 0.00 | 72 | 1017.3 |
| 20260831042041 | 24 | 283 | 4.8 | 11.3 | 0.00 | 0.00 | 0.00 | 72 | 1017.3 |
| 20260831041541 | 24 | 289 | 3.2 | 11.3 | 0.00 | 0.00 | 0.00 | 73 | 1017.2 |
| 20260831041041 | 24 | 287 | 3.2 | 6.4 | 0.00 | 0.00 | 0.00 | 74 | 1017.2 |
| 20260831040541 | 24 | 311 | 3.2 | 4.8 | 0.00 | 0.00 | 0.00 | 74 | 1017.2 |
| 20260831040041 | 24 | 292 | 6.4 | 9.7 | 0.00 | 0.00 | 0.00 | 75 | 1017.2 |
| 20260831035541 | 25 | 285 | 6.4 | 9.7 | 0.00 | 0.00 | 0.00 | 76 | 1017.2 |
| 20260831035041 | 25 | 317 | 3.2 | 9.7 | 0.00 | 0.00 | 0.00 | 76 | 1017.2 |
| 20260831034541 | 25 | 307 | 4.8 | 12.9 | 0.00 | 0.00 | 0.00 | 77 | 1017.3 |
| 20260831034041 | 25 | 293 | 6.4 | 11.3 | 0.00 | 0.00 | 0.00 | 75 | 1017.3 |
| 20260831033541 | 25 | 292 | 6.4 | 19.3 | 0.00 | 0.00 | 0.00 | 77 | 1017.2 |
| 20260831033041 | 25 | 287 | 6.4 | 17.7 | 0.00 | 0.00 | 0.00 | 79 | 1017.1 |
| 20260831032542 | 25 | 269 | 8.0 | 17.7 | 0.00 | 0.00 | 0.00 | 79 | 1017.1 |
| 20260831032041 | 25 | 262 | 9.7 | 17.7 | 0.00 | 0.00 | 0.00 | 79 | 1017.0 |
| 20260831031540 | 25 | 275 | 8.0 | 12.9 | 0.00 | 0.00 | 0.00 | 79 | 1017.1 |
| 20260831031041 | 25 | 269 | 4.8 | 9.7 | 0.00 | 0.00 | 0.00 | 80 | 1016.9 |
| 20260831030541 | 25 | 266 | 8.0 | 12.9 | 0.00 | 0.00 | 0.00 | 79 | 1016.9 |
| 20260831030041 | 25 | 271 | 6.4 | 9.7 | 0.00 | 0.00 | 0.00 | 80 | 1016.9 |
| 20260831025542 | 25 | 276 | 4.8 | 9.7 | 0.00 | 0.00 | 0.00 | 80 | 1016.9 |
| 20260831025041 | 26 | 264 | 6.4 | 9.7 | 0.00 | 0.00 | 0.00 | 79 | 1016.9 |
| 20260831024541 | 26 | 270 | 4.8 | 6.4 | 0.00 | 0.00 | 0.00 | 79 | 1017.0 |
| 20260831024041 | 26 | 261 | 4.8 | 8.0 | 0.00 | 0.00 | 0.00 | 78 | 1016.9 |
| 20260831023541 | 26 | 256 | 4.8 | 8.0 | 0.00 | 0.00 | 0.00 | 78 | 1017.0 |
| 20260831023041 | 26 | 263 | 4.8 | 9.7 | 0.00 | 0.00 | 0.00 | 77 | 1016.9 |
| 20260831022542 | 26 | 250 | 3.2 | 8.0 | 0.00 | 0.00 | 0.00 | 76 | 1016.9 |
| 20260831022042 | 26 | 248 | 4.8 | 9.7 | 0.00 | 0.00 | 0.00 | 74 | 1016.9 |
| 20260831021542 | 26 | 258 | 6.4 | 14.5 | 0.00 | 0.00 | 0.00 | 73 | 1016.9 |
| 20260831021042 | 26 | 274 | 3.2 | 8.0 | 0.00 | 0.00 | 0.00 | 73 | 1016.8 |
| 20260831020542 | 26 | 259 | 4.8 | 9.7 | 0.00 | 0.00 | 0.00 | 73 | 1016.8 |